sensor_id;sensor_type;location;lat;lon;timestamp;pressure;altitude;pressure_sealevel;temperature;humidity
43878;BME280;29815;48.184;11.268;2023-04-22T00:00:20;95039.59;;;7.79;100.00
43878;BME280;29815;48.184;11.268;2023-04-22T00:02:51;95039.03;;;7.72;100.00
43878;BME280;29815;48.184;11.268;2023-04-22T00:05:23;95041.16;;;7.70;100.00
43878;BME280;29815;48.184;11.268;2023-04-22T00:07:53;95044.09;;;7.69;100.00
43878;BME280;29815;48.184;11.268;2023-04-22T00:10:24;95042.50;;;7.63;100.00
43878;BME280;29815;48.184;11.268;2023-04-22T00:12:54;95036.31;;;7.57;100.00
43878;BME280;29815;48.184;11.268;2023-04-22T00:15:24;95037.91;;;7.53;100.00
43878;BME280;29815;48.184;11.268;2023-04-22T00:17:57;95037.59;;;7.44;100.00
43878;BME280;29815;48.184;11.268;2023-04-22T00:20:28;95028.25;;;7.47;100.00
43878;BME280;29815;48.184;11.268;2023-04-22T00:23:00;95033.34;;;7.48;100.00
43878;BME280;29815;48.184;11.268;2023-04-22T00:25:29;95036.25;;;7.37;100.00
43878;BME280;29815;48.184;11.268;2023-04-22T00:27:59;95035.72;;;7.35;100.00
43878;BME280;29815;48.184;11.268;2023-04-22T00:30:30;95031.16;;;7.35;100.00
43878;BME280;29815;48.184;11.268;2023-04-22T00:33:01;95033.28;;;7.33;100.00
43878;BME280;29815;48.184;11.268;2023-04-22T00:35:32;95031.94;;;7.31;100.00
43878;BME280;29815;48.184;11.268;2023-04-22T00:38:02;95030.03;;;7.26;100.00
43878;BME280;29815;48.184;11.268;2023-04-22T00:40:32;95031.88;;;7.21;100.00
43878;BME280;29815;48.184;11.268;2023-04-22T00:43:02;95034.25;;;7.12;100.00
43878;BME280;29815;48.184;11.268;2023-04-22T00:45:35;95034.22;;;7.02;100.00
43878;BME280;29815;48.184;11.268;2023-04-22T00:48:07;95029.63;;;6.97;100.00
43878;BME280;29815;48.184;11.268;2023-04-22T00:50:38;95022.16;;;6.99;100.00
43878;BME280;29815;48.184;11.268;2023-04-22T00:53:08;95022.19;;;7.04;100.00
43878;BME280;29815;48.184;11.268;2023-04-22T00:55:39;95019.53;;;7.09;100.00
43878;BME280;29815;48.184;11.268;2023-04-22T00:58:10;95023.03;;;7.10;100.00
43878;BME280;29815;48.184;11.268;2023-04-22T01:00:39;95020.59;;;7.08;100.00
43878;BME280;29815;48.184;11.268;2023-04-22T01:03:11;95021.13;;;7.05;100.00
43878;BME280;29815;48.184;11.268;2023-04-22T01:05:41;95027.00;;;7.02;100.00
43878;BME280;29815;48.184;11.268;2023-04-22T01:08:11;95024.28;;;6.97;100.00
43878;BME280;29815;48.184;11.268;2023-04-22T01:10:42;95026.69;;;6.94;100.00
43878;BME280;29815;48.184;11.268;2023-04-22T01:13:11;95028.00;;;6.91;100.00
43878;BME280;29815;48.184;11.268;2023-04-22T01:15:44;95030.38;;;6.88;100.00
43878;BME280;29815;48.184;11.268;2023-04-22T01:18:16;95030.63;;;6.86;100.00
43878;BME280;29815;48.184;11.268;2023-04-22T01:20:46;95032.75;;;6.84;100.00
43878;BME280;29815;48.184;11.268;2023-04-22T01:23:20;95033.31;;;6.81;100.00
43878;BME280;29815;48.184;11.268;2023-04-22T01:25:50;95027.41;;;6.79;100.00
43878;BME280;29815;48.184;11.268;2023-04-22T01:28:21;95033.00;;;6.77;100.00
43878;BME280;29815;48.184;11.268;2023-04-22T01:30:51;95037.81;;;6.75;100.00
43878;BME280;29815;48.184;11.268;2023-04-22T01:33:22;95028.44;;;6.73;100.00
43878;BME280;29815;48.184;11.268;2023-04-22T01:35:52;95031.91;;;6.73;100.00
43878;BME280;29815;48.184;11.268;2023-04-22T01:38:24;95040.72;;;6.69;100.00
43878;BME280;29815;48.184;11.268;2023-04-22T01:40:54;95036.13;;;6.64;100.00
43878;BME280;29815;48.184;11.268;2023-04-22T01:43:24;95043.59;;;6.62;100.00
43878;BME280;29815;48.184;11.268;2023-04-22T01:45:54;95040.13;;;6.62;100.00
43878;BME280;29815;48.184;11.268;2023-04-22T01:48:25;95048.69;;;6.64;100.00
43878;BME280;29815;48.184;11.268;2023-04-22T16:58:25;94821.50;;;21.30;41.46
43878;BME280;29815;48.184;11.268;2023-04-22T17:00:55;94823.94;;;21.19;42.93
43878;BME280;29815;48.184;11.268;2023-04-22T17:03:25;94823.66;;;21.08;42.02
43878;BME280;29815;48.184;11.268;2023-04-22T17:05:55;94828.19;;;21.01;44.12
43878;BME280;29815;48.184;11.268;2023-04-22T17:08:24;94826.59;;;20.84;45.25
43878;BME280;29815;48.184;11.268;2023-04-22T17:10:54;94830.31;;;20.76;45.51
43878;BME280;29815;48.184;11.268;2023-04-22T17:13:24;94830.28;;;20.60;46.12
43878;BME280;29815;48.184;11.268;2023-04-22T17:15:54;94832.19;;;20.44;46.91
43878;BME280;29815;48.184;11.268;2023-04-22T17:18:24;94830.28;;;20.32;45.61
43878;BME280;29815;48.184;11.268;2023-04-22T17:20:53;94828.75;;;20.19;47.01
43878;BME280;29815;48.184;11.268;2023-04-22T17:23:23;94834.25;;;20.07;47.59
43878;BME280;29815;48.184;11.268;2023-04-22T17:25:53;94839.00;;;19.94;48.20
43878;BME280;29815;48.184;11.268;2023-04-22T17:28:24;94827.63;;;19.80;48.02
43878;BME280;29815;48.184;11.268;2023-04-22T17:30:54;94839.75;;;19.67;48.39
43878;BME280;29815;48.184;11.268;2023-04-22T17:33:24;94833.84;;;19.52;47.85
43878;BME280;29815;48.184;11.268;2023-04-22T17:35:53;94837.78;;;19.43;48.26
43878;BME280;29815;48.184;11.268;2023-04-22T17:38:22;94840.66;;;19.34;49.08
43878;BME280;29815;48.184;11.268;2023-04-22T17:40:52;94839.63;;;19.26;49.64
43878;BME280;29815;48.184;11.268;2023-04-22T17:43:21;94843.84;;;19.12;49.85
43878;BME280;29815;48.184;11.268;2023-04-22T17:45:52;94837.72;;;19.03;49.57
43878;BME280;29815;48.184;11.268;2023-04-22T17:48:21;94845.06;;;18.90;49.83
43878;BME280;29815;48.184;11.268;2023-04-22T17:50:51;94840.41;;;18.78;50.74
43878;BME280;29815;48.184;11.268;2023-04-22T17:53:20;94840.38;;;18.66;50.76
43878;BME280;29815;48.184;11.268;2023-04-22T17:55:49;94846.59;;;18.54;51.49
43878;BME280;29815;48.184;11.268;2023-04-22T17:58:19;94855.53;;;18.43;51.67
43878;BME280;29815;48.184;11.268;2023-04-22T18:00:48;94855.84;;;18.29;53.49
43878;BME280;29815;48.184;11.268;2023-04-22T18:03:19;94854.50;;;18.14;54.33
43878;BME280;29815;48.184;11.268;2023-04-22T18:05:49;94859.47;;;18.00;54.43
43878;BME280;29815;48.184;11.268;2023-04-22T18:08:18;94855.22;;;17.90;55.20
43878;BME280;29815;48.184;11.268;2023-04-22T18:10:48;94854.78;;;17.80;55.18
43878;BME280;29815;48.184;11.268;2023-04-22T18:13:17;94859.06;;;17.69;56.28
43878;BME280;29815;48.184;11.268;2023-04-22T18:15:47;94866.44;;;17.59;56.21
43878;BME280;29815;48.184;11.268;2023-04-22T18:18:16;94866.84;;;17.49;57.06
43878;BME280;29815;48.184;11.268;2023-04-22T18:20:46;94869.81;;;17.36;58.94
43878;BME280;29815;48.184;11.268;2023-04-22T18:23:16;94874.50;;;17.26;61.71
43878;BME280;29815;48.184;11.268;2023-04-22T18:25:45;94877.44;;;17.13;63.42
43878;BME280;29815;48.184;11.268;2023-04-22T18:28:16;94877.34;;;17.01;67.37
43878;BME280;29815;48.184;11.268;2023-04-22T18:30:46;94877.38;;;16.92;72.06
43878;BME280;29815;48.184;11.268;2023-04-22T18:33:15;94882.69;;;16.80;74.51
43878;BME280;29815;48.184;11.268;2023-04-22T18:35:44;94882.72;;;16.71;76.65
43878;BME280;29815;48.184;11.268;2023-04-22T18:38:15;94885.78;;;16.61;78.97
43878;BME280;29815;48.184;11.268;2023-04-22T18:40:45;94896.00;;;16.55;83.08
43878;BME280;29815;48.184;11.268;2023-04-22T18:43:15;94900.66;;;16.46;85.69
43878;BME280;29815;48.184;11.268;2023-04-22T18:45:44;94904.03;;;16.35;88.56
43878;BME280;29815;48.184;11.268;2023-04-22T18:48:14;94905.47;;;16.23;89.08
43878;BME280;29815;48.184;11.268;2023-04-22T18:50:45;94906.44;;;16.19;92.21
43878;BME280;29815;48.184;11.268;2023-04-22T18:53:16;94901.16;;;16.14;97.02
43878;BME280;29815;48.184;11.268;2023-04-22T18:55:46;94908.53;;;16.05;98.73
43878;BME280;29815;48.184;11.268;2023-04-22T18:58:15;94915.25;;;15.99;97.29
43878;BME280;29815;48.184;11.268;2023-04-22T19:00:47;94918.91;;;15.94;94.50
43878;BME280;29815;48.184;11.268;2023-04-22T19:03:16;94918.41;;;15.92;91.01
43878;BME280;29815;48.184;11.268;2023-04-22T19:05:47;94924.16;;;15.90;90.13
43878;BME280;29815;48.184;11.268;2023-04-22T19:08:17;94927.50;;;15.87;88.68
43878;BME280;29815;48.184;11.268;2023-04-22T19:10:47;94921.94;;;15.84;87.08
43878;BME280;29815;48.184;11.268;2023-04-22T19:13:17;94928.31;;;15.79;86.37
43878;BME280;29815;48.184;11.268;2023-04-22T19:15:57;94932.16;;;15.78;87.04
43878;BME280;29815;48.184;11.268;2023-04-22T19:18:27;94942.84;;;15.83;95.65
43878;BME280;29815;48.184;11.268;2023-04-22T19:20:56;94951.00;;;15.83;100.00
43878;BME280;29815;48.184;11.268;2023-04-22T19:23:27;94963.56;;;15.71;100.00
43878;BME280;29815;48.184;11.268;2023-04-22T19:25:57;94972.97;;;15.65;100.00
43878;BME280;29815;48.184;11.268;2023-04-22T19:28:26;94978.06;;;15.66;96.75
43878;BME280;29815;48.184;11.268;2023-04-22T19:30:56;94973.94;;;15.69;97.16
43878;BME280;29815;48.184;11.268;2023-04-22T19:33:27;94977.34;;;15.83;82.74
43878;BME280;29815;48.184;11.268;2023-04-22T19:35:56;94973.97;;;15.95;82.19
43878;BME280;29815;48.184;11.268;2023-04-22T19:38:27;94977.97;;;15.97;80.47
43878;BME280;29815;48.184;11.268;2023-04-22T19:40:57;94980.84;;;15.92;83.15
43878;BME280;29815;48.184;11.268;2023-04-22T19:43:26;94973.81;;;15.82;84.79
43878;BME280;29815;48.184;11.268;2023-04-22T19:45:56;94977.78;;;15.76;83.62
43878;BME280;29815;48.184;11.268;2023-04-22T19:48:27;94982.44;;;15.84;80.15
43878;BME280;29815;48.184;11.268;2023-04-22T19:51:22;94994.91;;;15.85;81.33
43878;BME280;29815;48.184;11.268;2023-04-22T19:53:53;94999.84;;;15.92;79.98
43878;BME280;29815;48.184;11.268;2023-04-22T19:56:24;94997.59;;;15.85;83.67
43878;BME280;29815;48.184;11.268;2023-04-22T19:58:55;95003.00;;;15.77;86.96
43878;BME280;29815;48.184;11.268;2023-04-22T20:01:25;94998.06;;;15.87;81.22
43878;BME280;29815;48.184;11.268;2023-04-22T20:03:56;94995.34;;;15.79;84.27
43878;BME280;29815;48.184;11.268;2023-04-22T20:06:26;94995.16;;;15.67;85.22
43878;BME280;29815;48.184;11.268;2023-04-22T20:08:58;94986.66;;;15.60;84.71
43878;BME280;29815;48.184;11.268;2023-04-22T20:11:29;94996.41;;;15.61;84.25
43878;BME280;29815;48.184;11.268;2023-04-22T20:14:00;94998.47;;;15.55;87.29
43878;BME280;29815;48.184;11.268;2023-04-22T20:16:31;94993.16;;;15.50;87.51
43878;BME280;29815;48.184;11.268;2023-04-22T20:19:02;94993.63;;;15.43;93.64
43878;BME280;29815;48.184;11.268;2023-04-22T20:21:33;94995.81;;;15.33;95.81
43878;BME280;29815;48.184;11.268;2023-04-22T20:24:08;95002.31;;;15.23;95.90
43878;BME280;29815;48.184;11.268;2023-04-22T20:26:46;94994.00;;;15.19;97.63
43878;BME280;29815;48.184;11.268;2023-04-22T20:29:17;94993.66;;;15.12;95.69
43878;BME280;29815;48.184;11.268;2023-04-22T20:31:47;94994.09;;;15.06;98.69
43878;BME280;29815;48.184;11.268;2023-04-22T20:34:18;94988.94;;;14.96;100.00
43878;BME280;29815;48.184;11.268;2023-04-22T20:36:49;94988.91;;;14.87;100.00
43878;BME280;29815;48.184;11.268;2023-04-22T20:39:23;94986.78;;;14.75;100.00
43878;BME280;29815;48.184;11.268;2023-04-22T20:41:54;94989.09;;;14.68;100.00
43878;BME280;29815;48.184;11.268;2023-04-22T20:44:24;94998.16;;;14.64;100.00
43878;BME280;29815;48.184;11.268;2023-04-22T20:46:54;94990.47;;;14.57;100.00
43878;BME280;29815;48.184;11.268;2023-04-22T20:49:26;94990.56;;;14.52;100.00
43878;BME280;29815;48.184;11.268;2023-04-22T20:51:55;94985.31;;;14.47;100.00
43878;BME280;29815;48.184;11.268;2023-04-22T20:54:26;94984.66;;;14.50;100.00
43878;BME280;29815;48.184;11.268;2023-04-22T20:56:56;94982.94;;;14.54;100.00
43878;BME280;29815;48.184;11.268;2023-04-22T20:59:26;94988.34;;;14.54;100.00
43878;BME280;29815;48.184;11.268;2023-04-22T21:01:56;94981.66;;;14.51;100.00
43878;BME280;29815;48.184;11.268;2023-04-22T21:04:27;94984.91;;;14.40;100.00
43878;BME280;29815;48.184;11.268;2023-04-22T21:06:59;94980.09;;;14.37;100.00
43878;BME280;29815;48.184;11.268;2023-04-22T21:09:33;94981.75;;;14.24;100.00
43878;BME280;29815;48.184;11.268;2023-04-22T21:12:07;94979.16;;;14.19;100.00
43878;BME280;29815;48.184;11.268;2023-04-22T21:14:38;94981.44;;;14.26;100.00
43878;BME280;29815;48.184;11.268;2023-04-22T21:17:18;94976.91;;;14.35;100.00
43878;BME280;29815;48.184;11.268;2023-04-22T21:19:50;94977.19;;;14.33;100.00
43878;BME280;29815;48.184;11.268;2023-04-22T21:22:25;94981.44;;;14.26;100.00
43878;BME280;29815;48.184;11.268;2023-04-22T21:24:57;94981.56;;;14.20;100.00
43878;BME280;29815;48.184;11.268;2023-04-22T21:27:27;94968.38;;;14.05;100.00
43878;BME280;29815;48.184;11.268;2023-04-22T21:29:58;94977.50;;;13.96;100.00
43878;BME280;29815;48.184;11.268;2023-04-22T21:32:28;94985.06;;;13.85;100.00
43878;BME280;29815;48.184;11.268;2023-04-22T21:35:00;94995.00;;;13.76;100.00
43878;BME280;29815;48.184;11.268;2023-04-22T21:37:29;94993.50;;;13.70;100.00
43878;BME280;29815;48.184;11.268;2023-04-22T21:40:01;94993.94;;;13.63;100.00
43878;BME280;29815;48.184;11.268;2023-04-22T21:42:31;94995.13;;;13.57;100.00
43878;BME280;29815;48.184;11.268;2023-04-22T21:45:01;94992.22;;;13.53;100.00
43878;BME280;29815;48.184;11.268;2023-04-22T21:47:31;95003.34;;;13.52;100.00
43878;BME280;29815;48.184;11.268;2023-04-22T21:50:00;94992.31;;;13.48;100.00
43878;BME280;29815;48.184;11.268;2023-04-22T21:52:30;94993.72;;;13.46;100.00
43878;BME280;29815;48.184;11.268;2023-04-22T21:55:01;94995.44;;;13.42;100.00
43878;BME280;29815;48.184;11.268;2023-04-22T21:57:31;94995.72;;;13.40;100.00
43878;BME280;29815;48.184;11.268;2023-04-22T22:00:01;94998.75;;;13.39;100.00
43878;BME280;29815;48.184;11.268;2023-04-22T22:02:32;94998.25;;;13.37;100.00
43878;BME280;29815;48.184;11.268;2023-04-22T22:05:01;94994.44;;;13.38;100.00
43878;BME280;29815;48.184;11.268;2023-04-22T22:07:31;94990.81;;;13.42;100.00
43878;BME280;29815;48.184;11.268;2023-04-22T22:10:03;94990.22;;;13.45;100.00
43878;BME280;29815;48.184;11.268;2023-04-22T22:12:34;94992.13;;;13.45;100.00
43878;BME280;29815;48.184;11.268;2023-04-22T22:15:05;94992.72;;;13.42;100.00
43878;BME280;29815;48.184;11.268;2023-04-22T22:17:36;94991.75;;;13.38;100.00
43878;BME280;29815;48.184;11.268;2023-04-22T22:20:10;94984.25;;;13.35;100.00
43878;BME280;29815;48.184;11.268;2023-04-22T22:22:42;94989.34;;;13.36;100.00
43878;BME280;29815;48.184;11.268;2023-04-22T22:25:14;94994.44;;;13.38;100.00
43878;BME280;29815;48.184;11.268;2023-04-22T22:27:44;94990.94;;;13.37;100.00
43878;BME280;29815;48.184;11.268;2023-04-22T22:30:17;94993.94;;;13.36;100.00
43878;BME280;29815;48.184;11.268;2023-04-22T22:32:48;94991.84;;;13.33;100.00
43878;BME280;29815;48.184;11.268;2023-04-22T22:35:18;94991.94;;;13.28;100.00
43878;BME280;29815;48.184;11.268;2023-04-22T22:37:47;94987.44;;;13.23;100.00
43878;BME280;29815;48.184;11.268;2023-04-22T22:40:19;94990.72;;;13.20;100.00
43878;BME280;29815;48.184;11.268;2023-04-22T22:42:48;94996.50;;;13.13;100.00
43878;BME280;29815;48.184;11.268;2023-04-22T22:45:18;95003.09;;;13.07;100.00
43878;BME280;29815;48.184;11.268;2023-04-22T22:47:47;95004.00;;;13.03;100.00
43878;BME280;29815;48.184;11.268;2023-04-22T22:50:17;95010.13;;;13.08;100.00
43878;BME280;29815;48.184;11.268;2023-04-22T22:52:47;94997.91;;;13.11;100.00
43878;BME280;29815;48.184;11.268;2023-04-22T22:55:18;95002.22;;;13.12;100.00
43878;BME280;29815;48.184;11.268;2023-04-22T22:57:47;94996.59;;;13.08;100.00
43878;BME280;29815;48.184;11.268;2023-04-22T23:00:17;95003.69;;;13.04;100.00
43878;BME280;29815;48.184;11.268;2023-04-22T23:02:47;95011.09;;;12.99;100.00
43878;BME280;29815;48.184;11.268;2023-04-22T23:05:16;95016.06;;;12.92;100.00
43878;BME280;29815;48.184;11.268;2023-04-22T23:07:46;95014.59;;;12.85;100.00
43878;BME280;29815;48.184;11.268;2023-04-22T23:10:16;95016.34;;;12.76;100.00
43878;BME280;29815;48.184;11.268;2023-04-22T23:12:46;95015.34;;;12.72;100.00
43878;BME280;29815;48.184;11.268;2023-04-22T23:15:16;95017.03;;;12.68;100.00
43878;BME280;29815;48.184;11.268;2023-04-22T23:17:45;95020.53;;;12.69;100.00
43878;BME280;29815;48.184;11.268;2023-04-22T23:20:16;95021.31;;;12.69;100.00
43878;BME280;29815;48.184;11.268;2023-04-22T23:22:49;95019.44;;;12.70;100.00
43878;BME280;29815;48.184;11.268;2023-04-22T23:25:21;95014.75;;;12.75;100.00
43878;BME280;29815;48.184;11.268;2023-04-22T23:27:51;95015.47;;;12.81;100.00
43878;BME280;29815;48.184;11.268;2023-04-22T23:30:22;95013.59;;;12.95;100.00
43878;BME280;29815;48.184;11.268;2023-04-22T23:32:54;95021.50;;;13.05;100.00
43878;BME280;29815;48.184;11.268;2023-04-22T23:35:25;95005.91;;;13.02;100.00
